createdAt,value
2022-08-11T00:02:00.954Z,15.60
2022-08-11T00:04:36.330Z,15.50
2022-08-11T00:07:06.944Z,15.50
2022-08-11T00:09:39.134Z,15.30
2022-08-11T00:12:17.080Z,15.30
2022-08-11T00:14:46.305Z,15.30
2022-08-11T00:17:16.047Z,15.20
2022-08-11T00:20:13.044Z,15.20
2022-08-11T00:22:39.904Z,15.10
2022-08-11T00:25:13.066Z,15.00
2022-08-11T00:27:41.693Z,14.90
2022-08-11T00:30:11.319Z,14.80
2022-08-11T00:32:42.020Z,14.60
2022-08-11T00:35:51.871Z,14.60
2022-08-11T00:38:06.985Z,14.50
2022-08-11T00:40:42.801Z,14.50
2022-08-11T00:43:38.848Z,14.40
2022-08-11T00:46:22.750Z,14.40
2022-08-11T00:49:16.063Z,14.40
2022-08-11T00:52:06.922Z,14.40
2022-08-11T00:55:11.463Z,14.50
2022-08-11T00:58:23.569Z,14.50
2022-08-11T01:01:27.285Z,14.40
2022-08-11T01:04:38.084Z,14.30
2022-08-11T01:08:00.656Z,14.20
2022-08-11T01:10:56.145Z,14.20
2022-08-11T01:14:10.709Z,14.20
2022-08-11T01:17:14.675Z,14.20
2022-08-11T01:24:09.921Z,14.10
2022-08-11T01:27:04.994Z,14.20
2022-08-11T01:33:59.652Z,14.10
2022-08-11T01:37:06.230Z,14.00
2022-08-11T01:39:50.006Z,13.90
2022-08-11T01:46:27.191Z,13.80
2022-08-11T01:49:29.125Z,13.70
2022-08-11T01:52:16.103Z,13.70
2022-08-11T01:58:39.531Z,13.60
2022-08-11T02:01:28.182Z,13.60
2022-08-11T02:04:17.270Z,13.60
2022-08-11T02:07:31.102Z,13.50
2022-08-11T02:10:36.632Z,13.40
2022-08-11T02:13:35.593Z,13.50
2022-08-11T02:16:35.917Z,13.30
2022-08-11T02:20:12.731Z,13.30
2022-08-11T02:23:59.674Z,13.20
2022-08-11T02:26:41.735Z,13.20
2022-08-11T02:29:38.387Z,13.10
2022-08-11T02:32:46.736Z,13.10
2022-08-11T02:35:26.578Z,13.00
2022-08-11T02:38:30.617Z,13.00
2022-08-11T02:41:31.947Z,12.90
2022-08-11T02:44:06.863Z,12.90
2022-08-11T02:47:08.726Z,13.00
2022-08-11T02:50:00.055Z,13.00
2022-08-11T02:53:14.574Z,13.00
2022-08-11T02:56:01.751Z,13.00
2022-08-11T02:59:45.122Z,13.00
2022-08-11T03:02:33.762Z,13.00
2022-08-11T03:05:22.347Z,13.00
2022-08-11T03:08:29.367Z,13.00
2022-08-11T03:11:34.163Z,13.00
2022-08-11T03:15:22.030Z,12.90
2022-08-11T03:18:25.147Z,13.00
2022-08-11T03:21:21.921Z,12.90
2022-08-11T03:24:03.252Z,12.90
2022-08-11T03:26:33.215Z,12.80
2022-08-11T03:29:22.980Z,12.80
2022-08-11T03:32:33.211Z,12.80
2022-08-11T03:35:03.322Z,12.70
2022-08-11T03:38:06.098Z,12.60
2022-08-11T03:42:02.804Z,12.50
2022-08-11T03:44:45.448Z,12.50
2022-08-11T03:47:33.276Z,12.40
2022-08-11T03:50:32.561Z,12.30
2022-08-11T03:53:41.295Z,12.30
2022-08-11T03:56:55.044Z,12.30
2022-08-11T03:59:52.559Z,12.20
2022-08-11T04:09:40.913Z,12.40
2022-08-11T04:12:37.673Z,12.40
2022-08-11T05:11:42.605Z,15.30
2022-08-11T05:14:52.657Z,15.50
2022-08-11T05:39:33.856Z,16.50
2022-08-11T05:42:30.268Z,16.70
2022-08-11T05:45:58.283Z,16.80
2022-08-11T05:48:37.232Z,17.00
2022-08-11T05:51:29.951Z,17.20
2022-08-11T05:54:28.670Z,17.30
2022-08-11T05:56:59.991Z,17.50
2022-08-11T05:59:28.797Z,17.80
2022-08-11T06:02:08.450Z,18.00
2022-08-11T06:04:38.234Z,18.30
2022-08-11T06:07:09.550Z,18.40
2022-08-11T06:09:51.074Z,18.60
2022-08-11T06:12:33.605Z,18.60
2022-08-11T06:15:10.881Z,18.90
2022-08-11T06:17:46.460Z,19.10
2022-08-11T06:20:15.712Z,19.20
2022-08-11T06:22:48.572Z,19.30
2022-08-11T06:25:20.131Z,19.60
2022-08-11T06:27:56.496Z,19.70
2022-08-11T06:30:39.789Z,19.80
2022-08-11T06:33:13.788Z,19.80
2022-08-11T06:36:13.705Z,19.90
2022-08-11T06:39:30.411Z,20.30
2022-08-11T06:42:08.759Z,20.60
2022-08-11T06:44:50.602Z,20.90
2022-08-11T06:47:20.611Z,21.30
2022-08-11T06:50:08.909Z,21.70
2022-08-11T06:52:38.516Z,22.20
2022-08-11T06:55:58.136Z,22.30
2022-08-11T06:58:49.943Z,22.50
2022-08-11T07:01:47.694Z,23.00
2022-08-11T07:04:27.646Z,23.10
2022-08-11T07:07:44.297Z,23.40
2022-08-11T07:11:06.696Z,23.60
2022-08-11T07:13:56.440Z,23.90
2022-08-11T07:16:29.004Z,24.00
2022-08-11T07:19:23.784Z,24.20
2022-08-11T07:22:10.996Z,25.00
2022-08-11T07:25:03.025Z,25.80
2022-08-11T07:28:08.229Z,26.20
2022-08-11T07:30:40.126Z,26.70
2022-08-11T07:33:08.792Z,26.90
2022-08-11T07:35:52.014Z,27.10
2022-08-11T07:38:25.338Z,27.20
2022-08-11T07:40:53.199Z,27.40
2022-08-11T07:43:20.725Z,27.80
2022-08-11T07:46:06.745Z,28.40
2022-08-11T07:48:53.952Z,28.40
2022-08-11T07:51:40.857Z,28.60
2022-08-11T07:54:16.861Z,29.20
2022-08-11T07:56:55.450Z,29.30
2022-08-11T07:59:58.555Z,30.10
2022-08-11T08:02:46.977Z,30.10
2022-08-11T08:05:35.410Z,30.50
2022-08-11T08:08:21.907Z,30.00
2022-08-11T08:11:10.453Z,29.90
2022-08-11T08:13:56.889Z,29.90
2022-08-11T08:16:43.622Z,30.30
2022-08-11T08:19:15.001Z,30.70
2022-08-11T08:21:45.487Z,31.20
2022-08-11T08:24:13.941Z,31.50
2022-08-11T08:26:58.986Z,31.40
2022-08-11T08:29:47.710Z,30.90
2022-08-11T08:32:17.923Z,30.80
2022-08-11T08:34:46.741Z,30.70
2022-08-11T08:37:44.843Z,30.90
2022-08-11T08:40:02.489Z,31.00
2022-08-11T08:42:32.746Z,31.10
2022-08-11T08:45:11.778Z,31.20
2022-08-11T08:47:46.998Z,30.80
2022-08-11T08:50:20.087Z,30.70
2022-08-11T08:53:00.051Z,30.00
2022-08-11T08:55:30.345Z,29.30
2022-08-11T08:58:00.804Z,29.60
2022-08-11T09:00:41.002Z,29.50
2022-08-11T09:03:36.603Z,29.80
2022-08-11T09:05:58.582Z,29.50
2022-08-11T09:08:28.539Z,29.40
2022-08-11T09:11:15.578Z,29.90
2022-08-11T09:13:45.105Z,29.40
2022-08-11T09:16:13.299Z,28.20
2022-08-11T09:18:44.604Z,27.50
2022-08-11T09:21:39.296Z,27.00
2022-08-11T09:24:26.288Z,27.40
2022-08-11T09:27:00.410Z,28.30
2022-08-11T09:29:29.712Z,28.60
2022-08-11T09:31:58.746Z,27.80
2022-08-11T09:34:27.456Z,27.50
2022-08-11T09:37:14.081Z,27.80
2022-08-11T09:40:21.287Z,28.40
2022-08-11T09:43:14.618Z,27.50
2022-08-11T09:45:46.494Z,27.10
2022-08-11T09:48:14.730Z,27.30
2022-08-11T09:50:42.480Z,27.20
2022-08-11T09:53:37.251Z,27.70
2022-08-11T09:56:21.863Z,28.30
2022-08-11T09:58:49.859Z,29.30
2022-08-11T10:01:28.343Z,29.60
2022-08-11T10:04:00.267Z,28.80
2022-08-11T10:06:54.054Z,29.10
2022-08-11T10:09:24.319Z,29.70
2022-08-11T10:11:58.332Z,30.70
2022-08-11T10:14:46.784Z,30.30
2022-08-11T10:17:15.914Z,29.60
2022-08-11T10:19:48.831Z,29.80
2022-08-11T10:22:50.922Z,30.10
2022-08-11T10:25:37.512Z,29.90
2022-08-11T10:28:17.579Z,29.70
2022-08-11T10:31:16.871Z,28.50
2022-08-11T10:34:00.580Z,28.20
2022-08-11T10:36:35.547Z,27.90
2022-08-11T10:39:06.732Z,27.80
2022-08-11T10:42:06.712Z,28.20
2022-08-11T10:44:46.151Z,28.60
2022-08-11T10:47:34.548Z,27.80
2022-08-11T10:50:28.034Z,27.30
2022-08-11T10:53:16.920Z,27.60
2022-08-11T10:58:49.323Z,29.40
2022-08-11T11:01:34.560Z,29.90
2022-08-11T11:04:16.718Z,30.30
2022-08-11T11:07:03.807Z,30.10
2022-08-11T11:09:34.682Z,29.70
2022-08-11T11:12:29.491Z,29.80
2022-08-11T11:15:17.967Z,29.10
2022-08-11T11:17:57.647Z,30.00
2022-08-11T11:21:04.618Z,30.20
2022-08-11T11:23:54.610Z,30.50
2022-08-11T11:26:56.767Z,30.60
2022-08-11T11:30:04.493Z,30.60
2022-08-11T11:32:49.128Z,30.10
2022-08-11T11:35:55.440Z,29.20
2022-08-11T11:38:23.076Z,29.70
2022-08-11T11:41:11.034Z,30.10
2022-08-11T11:43:39.087Z,30.30
2022-08-11T11:46:09.638Z,30.80
2022-08-11T11:48:37.965Z,31.30
2022-08-11T11:51:05.904Z,30.90
2022-08-11T11:53:34.418Z,31.10
2022-08-11T11:56:03.391Z,30.80
2022-08-11T11:58:49.543Z,30.80
2022-08-11T12:01:17.942Z,31.10
2022-08-11T12:03:48.576Z,30.70
2022-08-11T12:06:18.348Z,30.80
2022-08-11T12:08:49.517Z,30.70
2022-08-11T12:11:38.159Z,31.20
2022-08-11T12:14:10.314Z,31.40
2022-08-11T12:16:41.747Z,30.80
2022-08-11T12:19:13.439Z,30.90
2022-08-11T12:22:00.837Z,31.10
2022-08-11T12:24:49.427Z,30.70
2022-08-11T12:27:20.562Z,31.00
2022-08-11T12:29:55.875Z,31.10
2022-08-11T12:32:27.184Z,30.60
2022-08-11T12:34:56.872Z,29.90
2022-08-11T12:37:30.471Z,30.00
2022-08-11T12:40:42.599Z,30.30
2022-08-11T12:43:56.459Z,30.40
2022-08-11T12:46:34.508Z,30.50
2022-08-11T12:49:31.609Z,30.40
2022-08-11T12:52:13.582Z,30.40
2022-08-11T12:55:02.769Z,30.00
2022-08-11T12:57:57.544Z,29.80
2022-08-11T13:00:46.846Z,29.10
2022-08-11T13:03:33.523Z,29.60
2022-08-11T13:06:03.817Z,30.50
2022-08-11T13:08:35.661Z,30.50
2022-08-11T13:11:23.473Z,31.00
2022-08-11T13:13:57.501Z,31.50
2022-08-11T13:16:31.267Z,31.60
2022-08-11T13:19:01.233Z,31.90
2022-08-11T13:21:29.797Z,31.50
2022-08-11T13:24:00.409Z,31.20
2022-08-11T13:26:46.905Z,30.90
2022-08-11T13:29:23.200Z,30.20
2022-08-11T13:31:56.115Z,30.10
2022-08-11T13:34:27.030Z,30.00
2022-08-11T13:37:00.893Z,30.20
2022-08-11T13:39:32.304Z,30.80
2022-08-11T13:42:01.987Z,30.90
2022-08-11T13:44:33.223Z,31.40
2022-08-11T13:47:06.661Z,30.70
2022-08-11T13:49:39.953Z,30.40
2022-08-11T13:52:14.088Z,30.80
2022-08-11T13:54:43.020Z,30.80
2022-08-11T13:58:05.946Z,30.70
2022-08-11T14:00:13.094Z,30.60
2022-08-11T14:02:54.040Z,30.40
2022-08-11T14:05:27.628Z,30.60
2022-08-11T14:08:37.352Z,31.00
2022-08-11T14:12:22.486Z,31.50
2022-08-11T14:14:21.247Z,31.40
2022-08-11T14:16:51.214Z,31.20
2022-08-11T14:19:22.707Z,30.50
2022-08-11T14:22:08.463Z,30.60
2022-08-11T14:24:45.423Z,30.30
2022-08-11T14:27:39.069Z,30.30
2022-08-11T14:30:02.523Z,30.80
2022-08-11T14:32:30.362Z,30.90
2022-08-11T14:34:58.939Z,30.70
2022-08-11T14:37:29.181Z,30.80
2022-08-11T14:40:03.993Z,31.10
2022-08-11T14:42:50.383Z,30.70
2022-08-11T14:45:57.624Z,30.40
2022-08-11T14:48:24.354Z,30.60
2022-08-11T14:50:52.942Z,30.70
2022-08-11T14:53:22.834Z,30.50
2022-08-11T14:56:09.918Z,30.60
2022-08-11T14:58:37.779Z,30.40
2022-08-11T15:01:25.809Z,29.90
2022-08-11T15:04:34.330Z,30.20
2022-08-11T15:06:43.082Z,30.50
2022-08-11T15:09:10.708Z,30.30
2022-08-11T15:11:57.553Z,29.70
2022-08-11T15:14:45.354Z,29.50
2022-08-11T15:17:13.657Z,29.90
2022-08-11T15:20:01.548Z,30.20
2022-08-11T15:22:48.020Z,30.20
2022-08-11T15:25:15.874Z,30.60
2022-08-11T15:28:04.903Z,30.90
2022-08-11T15:30:50.852Z,31.00
2022-08-11T15:33:39.390Z,30.40
2022-08-11T15:36:28.363Z,30.60
2022-08-11T15:39:20.848Z,30.80
2022-08-11T15:42:31.346Z,31.20
2022-08-11T15:45:22.672Z,31.10
2022-08-11T15:48:04.166Z,31.50
2022-08-11T15:50:38.872Z,31.90
2022-08-11T15:53:17.970Z,31.70
2022-08-11T15:55:47.551Z,31.60
2022-08-11T15:58:37.212Z,31.50
2022-08-11T16:01:26.523Z,31.90
2022-08-11T16:04:12.518Z,32.00
2022-08-11T16:07:11.792Z,31.90
2022-08-11T16:10:00.180Z,31.60
2022-08-11T16:12:34.735Z,31.30
2022-08-11T16:15:26.140Z,31.80
2022-08-11T16:18:03.457Z,31.50
2022-08-11T16:20:31.958Z,31.30
2022-08-11T16:23:04.749Z,30.80
2022-08-11T16:27:05.193Z,30.00
2022-08-11T16:28:25.242Z,29.10
2022-08-11T16:30:54.918Z,28.40
2022-08-11T16:33:51.279Z,28.10
2022-08-11T16:36:32.953Z,27.90
2022-08-11T16:39:02.699Z,27.70
2022-08-11T16:41:53.749Z,27.40
2022-08-11T16:44:41.377Z,27.30
2022-08-11T16:47:16.500Z,27.20
2022-08-11T16:49:52.308Z,27.10
2022-08-11T16:52:22.271Z,27.10
2022-08-11T16:54:50.172Z,26.90
2022-08-11T16:57:44.872Z,26.90
2022-08-11T17:00:17.624Z,26.70
2022-08-11T17:03:09.861Z,26.60
2022-08-11T17:06:01.785Z,26.60
2022-08-11T17:08:57.672Z,26.50
2022-08-11T17:11:48.142Z,26.50
2022-08-11T17:14:35.262Z,26.40
2022-08-11T17:17:14.430Z,26.40
2022-08-11T17:20:40.174Z,26.30
2022-08-11T17:22:59.844Z,26.20
2022-08-11T17:25:28.841Z,26.20
2022-08-11T17:27:56.995Z,26.00
2022-08-11T17:30:47.464Z,25.90
2022-08-11T17:33:44.591Z,26.00
2022-08-11T17:36:13.094Z,25.80
2022-08-11T17:38:41.135Z,25.70
2022-08-11T17:41:28.165Z,25.70
2022-08-11T17:44:14.806Z,25.70
2022-08-11T17:47:05.885Z,25.50
2022-08-11T17:49:39.373Z,25.50
2022-08-11T17:52:29.711Z,25.50
2022-08-11T17:55:51.164Z,25.30
2022-08-11T17:58:26.305Z,25.20
2022-08-11T18:00:55.165Z,25.00
2022-08-11T18:03:32.660Z,24.80
2022-08-11T18:06:04.640Z,24.70
2022-08-11T18:08:53.187Z,24.60
2022-08-11T18:12:11.495Z,24.40
2022-08-11T18:14:47.853Z,24.30
2022-08-11T18:17:33.805Z,24.20
2022-08-11T18:20:19.896Z,24.00
2022-08-11T18:23:07.731Z,23.80
2022-08-11T18:25:59.226Z,23.50
2022-08-11T18:28:50.104Z,23.20
2022-08-11T18:31:38.544Z,23.00
2022-08-11T18:34:28.801Z,22.80
2022-08-11T18:37:25.906Z,22.50
2022-08-11T18:40:24.486Z,22.30
2022-08-11T18:43:13.575Z,22.00
2022-08-11T18:46:06.440Z,21.80
2022-08-11T18:48:57.677Z,21.60
2022-08-11T18:51:45.035Z,21.30
2022-08-11T18:54:32.512Z,21.20
2022-08-11T18:57:21.674Z,21.10
2022-08-11T19:00:09.070Z,20.90
2022-08-11T19:02:57.724Z,20.80
2022-08-11T19:06:32.508Z,20.80
2022-08-11T19:08:59.534Z,20.70
2022-08-11T19:11:48.945Z,20.70
2022-08-11T19:14:36.733Z,20.60
2022-08-11T19:17:44.053Z,20.60
2022-08-11T19:20:40.631Z,20.50
2022-08-11T19:23:29.474Z,20.30
2022-08-11T19:26:16.853Z,20.10
2022-08-11T19:29:06.443Z,19.90
2022-08-11T19:31:53.669Z,19.80
2022-08-11T19:34:45.033Z,19.70
2022-08-11T19:37:31.621Z,19.50
2022-08-11T19:40:23.483Z,19.40
2022-08-11T19:43:14.758Z,19.20
2022-08-11T19:46:12.590Z,19.20
2022-08-11T19:49:00.031Z,19.20
2022-08-11T19:51:53.648Z,19.00
2022-08-11T19:54:46.556Z,19.00
2022-08-11T19:57:39.345Z,18.90
2022-08-11T20:00:36.047Z,18.80
2022-08-11T20:03:25.498Z,18.60
2022-08-11T20:06:13.395Z,18.50
2022-08-11T20:09:01.828Z,18.40
2022-08-11T20:11:52.086Z,18.20
2022-08-11T20:14:39.211Z,18.00
2022-08-11T20:17:30.780Z,18.00
2022-08-11T20:20:18.506Z,17.90
2022-08-11T20:23:07.579Z,17.70
2022-08-11T20:26:03.363Z,17.60
2022-08-11T20:28:57.008Z,17.60
2022-08-11T20:31:43.524Z,17.50
2022-08-11T20:34:32.411Z,17.50
2022-08-11T20:37:19.892Z,17.50
2022-08-11T20:40:06.991Z,17.40
2022-08-11T20:42:54.798Z,17.40
2022-08-11T20:45:55.217Z,17.50
2022-08-11T20:48:45.765Z,17.40
2022-08-11T20:51:38.508Z,17.30
2022-08-11T20:54:38.213Z,17.20
2022-08-11T20:57:58.684Z,17.20
2022-08-11T21:00:39.455Z,17.10
2022-08-11T21:03:35.667Z,17.10
2022-08-11T21:06:26.249Z,17.00
2022-08-11T21:09:25.121Z,16.90
2022-08-11T21:12:31.634Z,16.80
2022-08-11T21:15:39.085Z,16.70
2022-08-11T21:18:29.439Z,16.70
2022-08-11T21:21:18.190Z,16.50
2022-08-11T21:24:07.365Z,16.50
2022-08-11T21:27:03.458Z,16.50
2022-08-11T21:29:52.986Z,16.50
2022-08-11T21:32:40.854Z,16.40
2022-08-11T21:35:28.684Z,16.30
2022-08-11T21:38:16.330Z,16.20
2022-08-11T21:41:04.285Z,16.10
2022-08-11T21:43:52.098Z,16.10
2022-08-11T21:46:40.921Z,15.90
2022-08-11T21:49:29.827Z,15.90
2022-08-11T21:52:15.719Z,15.80
2022-08-11T21:55:02.593Z,15.80
2022-08-11T21:57:50.403Z,15.70
2022-08-11T22:00:36.798Z,15.60
2022-08-11T22:03:23.664Z,15.60
2022-08-11T22:06:11.239Z,15.50
2022-08-11T22:08:57.737Z,15.50
2022-08-11T22:11:43.904Z,15.40
2022-08-11T22:14:29.863Z,15.40
2022-08-11T22:17:15.809Z,15.30
2022-08-11T22:20:02.695Z,15.20
2022-08-11T22:22:53.229Z,15.10
2022-08-11T22:25:51.205Z,15.10
2022-08-11T22:28:38.664Z,15.00
2022-08-11T22:31:26.820Z,15.00
2022-08-11T22:34:13.735Z,15.00
2022-08-11T22:37:05.061Z,14.90
2022-08-11T22:39:59.562Z,15.00
2022-08-11T22:42:50.106Z,15.00
2022-08-11T22:45:36.602Z,14.90
2022-08-11T22:48:28.059Z,14.80
2022-08-11T22:51:15.202Z,14.80
2022-08-11T22:54:02.276Z,14.70
2022-08-11T22:56:49.784Z,14.70
2022-08-11T22:59:38.466Z,14.60
2022-08-11T23:02:25.817Z,14.50
2022-08-11T23:05:12.737Z,14.60
2022-08-11T23:08:00.009Z,14.50
2022-08-11T23:10:46.318Z,14.40
2022-08-11T23:13:34.371Z,14.40
2022-08-11T23:16:21.243Z,14.40
2022-08-11T23:19:07.370Z,14.40
2022-08-11T23:21:53.737Z,14.40
2022-08-11T23:24:41.360Z,14.30
2022-08-11T23:27:28.888Z,14.30
2022-08-11T23:30:18.784Z,14.30
2022-08-11T23:33:09.954Z,14.40
2022-08-11T23:36:04.531Z,14.40
2022-08-11T23:38:51.781Z,14.30
2022-08-11T23:41:38.743Z,14.20
2022-08-11T23:44:26.118Z,14.20
2022-08-11T23:47:19.003Z,14.20
2022-08-11T23:50:08.121Z,14.20
2022-08-11T23:52:55.802Z,14.20
2022-08-11T23:55:41.625Z,14.10
2022-08-11T23:58:30.203Z,14.10
